createdAt,value
2018-07-02T00:00:38.633Z,1.00
2018-07-02T00:03:08.098Z,1.10
2018-07-02T00:05:48.905Z,1.00
2018-07-02T00:08:18.786Z,0.87
2018-07-02T00:10:48.271Z,1.13
2018-07-02T00:13:17.757Z,1.07
2018-07-02T00:15:47.218Z,0.90
2018-07-02T00:18:16.666Z,0.80
2018-07-02T00:20:46.177Z,0.90
2018-07-02T00:23:15.778Z,0.80
2018-07-02T00:25:45.255Z,0.80
2018-07-02T00:28:14.706Z,1.07
2018-07-02T00:30:44.156Z,0.70
2018-07-02T00:33:13.628Z,0.97
2018-07-02T00:35:43.138Z,0.90
2018-07-02T00:38:12.570Z,1.00
2018-07-02T00:40:42.583Z,1.00
2018-07-02T00:43:12.070Z,0.80
2018-07-02T00:45:41.537Z,0.87
2018-07-02T00:48:11.040Z,1.50
2018-07-02T00:50:40.534Z,0.97
2018-07-02T00:53:09.969Z,0.90
2018-07-02T00:55:39.591Z,1.10
2018-07-02T00:58:09.047Z,0.90
2018-07-02T01:00:38.530Z,0.90
2018-07-02T01:03:08.460Z,0.70
2018-07-02T01:05:37.928Z,0.90
2018-07-02T01:08:07.574Z,0.90
2018-07-02T01:10:37.033Z,0.70
2018-07-02T01:13:06.568Z,0.80
2018-07-02T01:15:36.420Z,0.97
2018-07-02T01:18:05.904Z,0.90
2018-07-02T01:20:35.403Z,0.70
2018-07-02T01:23:04.845Z,0.80
2018-07-02T01:25:34.418Z,0.90
2018-07-02T01:28:03.957Z,0.80
2018-07-02T01:30:33.384Z,0.90
2018-07-02T01:33:03.779Z,1.10
2018-07-02T01:35:33.239Z,0.80
2018-07-02T01:38:02.906Z,0.80
2018-07-02T01:40:32.364Z,0.83
2018-07-02T01:43:01.812Z,0.80
2018-07-02T01:45:31.402Z,0.90
2018-07-02T01:48:00.870Z,0.73
2018-07-02T01:50:30.330Z,0.77
2018-07-02T01:52:59.678Z,0.80
2018-07-02T01:55:29.602Z,0.80
2018-07-02T01:57:59.032Z,0.70
2018-07-02T02:00:28.513Z,0.80
2018-07-02T02:02:58.130Z,0.90
2018-07-02T02:05:27.636Z,0.90
2018-07-02T02:07:57.145Z,0.90
2018-07-02T02:10:26.577Z,0.83
2018-07-02T02:12:56.050Z,0.70
2018-07-02T02:15:25.519Z,0.83
2018-07-02T02:17:55.070Z,0.80
2018-07-02T02:20:24.525Z,0.80
2018-07-02T02:22:54.619Z,1.00
2018-07-02T02:25:24.045Z,0.70
2018-07-02T02:27:53.492Z,0.73
2018-07-02T02:30:23.008Z,1.20
2018-07-02T02:32:52.484Z,0.90
2018-07-02T02:35:21.934Z,0.80
2018-07-02T02:37:51.417Z,0.93
2018-07-02T02:40:20.878Z,1.00
2018-07-02T02:42:50.341Z,0.90
2018-07-02T02:45:19.469Z,0.93
2018-07-02T02:47:48.781Z,0.83
2018-07-02T02:50:18.254Z,0.90
2018-07-02T02:52:47.711Z,0.90
2018-07-02T02:55:17.326Z,0.83
2018-07-02T02:57:46.798Z,1.23
2018-07-02T03:00:16.232Z,1.43
2018-07-02T03:02:45.697Z,0.70
2018-07-02T03:05:15.173Z,0.80
2018-07-02T03:07:44.644Z,0.80
2018-07-02T03:10:14.065Z,0.80
2018-07-02T03:12:43.906Z,0.87
2018-07-02T03:15:13.333Z,0.83
2018-07-02T03:17:42.836Z,1.00
2018-07-02T03:20:12.322Z,0.90
2018-07-02T03:22:41.909Z,0.80
2018-07-02T03:25:11.359Z,1.20
2018-07-02T03:27:40.790Z,0.80
2018-07-02T03:30:10.381Z,1.20
2018-07-02T03:32:39.811Z,1.30
2018-07-02T03:35:09.240Z,0.90
2018-07-02T03:37:38.741Z,0.97
2018-07-02T03:40:08.375Z,1.00
2018-07-02T03:42:37.800Z,1.10
2018-07-02T03:45:07.258Z,1.40
2018-07-02T03:47:36.799Z,0.90
2018-07-02T03:50:06.370Z,0.90
2018-07-02T03:52:35.813Z,1.10
2018-07-02T03:55:05.444Z,1.10
2018-07-02T03:57:34.927Z,1.10
2018-07-02T04:00:04.487Z,1.20
2018-07-02T04:02:33.990Z,1.00
2018-07-02T04:05:03.446Z,1.00
2018-07-02T04:07:33.080Z,0.90
2018-07-02T04:10:02.559Z,0.90
2018-07-02T04:12:32.039Z,1.00
2018-07-02T04:15:01.500Z,0.90
2018-07-02T04:17:30.949Z,1.03
2018-07-02T04:20:00.562Z,0.97
2018-07-02T04:22:30.073Z,0.77
2018-07-02T04:24:59.532Z,0.90
2018-07-02T04:27:29.037Z,1.00
2018-07-02T04:29:58.482Z,0.90
2018-07-02T04:32:27.937Z,1.00
2018-07-02T04:34:57.397Z,0.90
2018-07-02T04:37:26.885Z,0.90
2018-07-02T04:39:56.456Z,0.90
2018-07-02T04:42:25.893Z,0.80
2018-07-02T04:44:55.328Z,0.80
2018-07-02T04:47:24.766Z,0.93
2018-07-02T04:49:54.236Z,1.00
2018-07-02T04:52:23.683Z,1.00
2018-07-02T04:54:53.132Z,0.90
2018-07-02T04:57:22.909Z,1.00
2018-07-02T04:59:52.372Z,1.00
2018-07-02T05:02:21.808Z,0.90
2018-07-02T05:04:51.221Z,1.17
2018-07-02T05:07:20.614Z,1.13
2018-07-02T05:09:50.051Z,0.90
2018-07-02T05:12:19.417Z,1.00
2018-07-02T05:14:48.859Z,1.20
2018-07-02T05:17:18.309Z,1.27
2018-07-02T05:19:47.356Z,1.27
2018-07-02T05:22:16.747Z,1.10
2018-07-02T05:24:46.231Z,1.20
2018-07-02T05:27:15.629Z,1.00
2018-07-02T05:29:45.064Z,1.50
2018-07-02T05:32:14.508Z,1.60
2018-07-02T05:34:44.128Z,1.13
2018-07-02T05:37:13.671Z,1.00
2018-07-02T05:39:43.087Z,0.97
2018-07-02T05:42:12.558Z,1.10
2018-07-02T05:44:42.024Z,1.10
2018-07-02T05:47:11.453Z,0.97
2018-07-02T05:49:40.884Z,1.20
2018-07-02T05:52:10.293Z,1.00
2018-07-02T05:54:39.760Z,1.00
2018-07-02T05:57:09.667Z,0.87
2018-07-02T05:59:39.041Z,1.20
2018-07-02T06:02:08.481Z,1.10
2018-07-02T06:04:37.868Z,1.30
2018-07-02T06:07:07.374Z,1.30
2018-07-02T06:09:36.879Z,1.13
2018-07-02T06:12:06.298Z,1.20
2018-07-02T06:14:35.721Z,1.23
2018-07-02T06:17:05.222Z,1.03
2018-07-02T06:19:34.649Z,1.30
2018-07-02T06:22:04.117Z,1.10
2018-07-02T06:24:33.582Z,1.10
2018-07-02T06:27:03.063Z,0.90
2018-07-02T06:29:32.509Z,0.93
2018-07-02T06:32:02.486Z,1.00
2018-07-02T06:34:31.907Z,1.00
2018-07-02T06:37:01.338Z,0.80
2018-07-02T06:39:30.833Z,1.00
2018-07-02T06:42:00.750Z,0.90
2018-07-02T06:44:30.447Z,0.80
2018-07-02T06:46:59.767Z,0.87
2018-07-02T06:49:29.237Z,0.77
2018-07-02T06:51:58.663Z,0.77
2018-07-02T06:54:28.154Z,0.90
2018-07-02T06:56:57.628Z,0.80
2018-07-02T06:59:27.095Z,0.93
2018-07-02T07:01:56.561Z,0.80
2018-07-02T07:04:26.065Z,0.80
2018-07-02T07:06:56.525Z,0.70
2018-07-02T07:09:25.966Z,0.60
2018-07-02T07:11:55.470Z,0.67
2018-07-02T07:14:24.908Z,1.00
2018-07-02T07:16:54.015Z,0.80
2018-07-02T07:19:23.053Z,1.10
2018-07-02T07:21:52.812Z,0.87
2018-07-02T07:24:22.238Z,1.10
2018-07-02T07:26:51.687Z,0.80
2018-07-02T07:29:21.164Z,0.80
2018-07-02T07:31:50.589Z,0.67
2018-07-02T07:34:20.045Z,0.77
2018-07-02T07:36:49.414Z,1.07
2018-07-02T07:39:18.882Z,0.80
2018-07-02T07:41:48.311Z,1.07
2018-07-02T07:44:17.891Z,0.87
2018-07-02T07:46:48.013Z,0.70
2018-07-02T07:49:17.473Z,0.63
2018-07-02T07:51:46.951Z,0.80
2018-07-02T07:54:16.027Z,0.70
2018-07-02T07:56:45.379Z,1.00
2018-07-02T07:59:14.821Z,0.87
2018-07-02T08:01:44.462Z,0.60
2018-07-02T08:04:14.277Z,1.30
2018-07-02T08:06:43.794Z,1.37
2018-07-02T08:09:13.720Z,0.80
2018-07-02T08:11:43.583Z,0.67
2018-07-02T08:14:13.122Z,0.70
2018-07-02T08:16:42.575Z,0.70
2018-07-02T08:19:12.048Z,0.60
2018-07-02T08:21:42.623Z,0.90
2018-07-02T08:24:12.285Z,1.00
2018-07-02T08:26:41.740Z,0.70
2018-07-02T08:29:11.208Z,0.90
2018-07-02T08:31:41.572Z,0.60
2018-07-02T08:34:11.006Z,0.70
2018-07-02T08:36:40.444Z,0.70
2018-07-02T08:39:12.466Z,0.90
2018-07-02T08:41:42.132Z,0.77
2018-07-02T08:44:11.590Z,0.93
2018-07-02T08:46:41.359Z,0.70
2018-07-02T08:49:11.831Z,0.70
2018-07-02T08:51:41.392Z,0.70
2018-07-02T08:54:10.808Z,0.67
2018-07-02T08:56:40.519Z,0.70
2018-07-02T09:08:08.561Z,0.87
2018-07-02T09:10:38.078Z,0.73
2018-07-02T09:13:07.659Z,0.80
2018-07-02T09:15:37.204Z,0.70
2018-07-02T09:18:06.773Z,0.70
2018-07-02T09:20:36.337Z,0.60
2018-07-02T09:23:05.963Z,0.67
2018-07-02T09:25:35.498Z,0.60
2018-07-02T09:28:04.982Z,0.60
2018-07-02T09:30:34.927Z,0.60
2018-07-02T09:33:04.461Z,0.70
2018-07-02T09:35:33.944Z,0.60
2018-07-02T09:38:03.417Z,0.63
2018-07-02T09:40:33.371Z,0.80
2018-07-02T09:43:02.937Z,0.63
2018-07-02T09:45:32.892Z,0.70
2018-07-02T09:48:02.390Z,0.60
2018-07-02T09:50:31.938Z,0.70
2018-07-02T09:53:01.916Z,0.60
2018-07-02T09:55:31.458Z,0.67
2018-07-02T09:58:01.156Z,0.70
2018-07-02T10:00:30.973Z,0.67
2018-07-02T10:03:00.482Z,0.70
2018-07-02T10:05:30.027Z,0.83
2018-07-02T10:07:59.870Z,0.73
2018-07-02T10:10:29.368Z,0.80
2018-07-02T10:12:58.956Z,0.67
2018-07-02T10:15:28.466Z,0.70
2018-07-02T10:17:58.564Z,0.70
2018-07-02T10:20:28.097Z,0.67
2018-07-02T10:22:57.607Z,1.03
2018-07-02T10:25:27.207Z,0.60
2018-07-02T10:27:56.796Z,0.97
2018-07-02T10:30:27.646Z,0.80
2018-07-02T10:32:57.188Z,0.60
2018-07-02T10:35:26.690Z,0.70
2018-07-02T10:37:56.514Z,0.50
2018-07-02T10:40:26.006Z,0.80
2018-07-02T10:42:55.553Z,0.60
2018-07-02T10:45:25.061Z,0.63
2018-07-02T10:47:54.611Z,0.60
2018-07-02T10:50:24.149Z,0.60
2018-07-02T10:52:53.824Z,0.77
2018-07-02T10:55:23.374Z,0.60
2018-07-02T10:57:52.875Z,0.80
2018-07-02T11:00:22.438Z,0.77
2018-07-02T11:02:52.149Z,0.60
2018-07-02T11:05:22.089Z,0.70
2018-07-02T11:07:51.590Z,0.60
2018-07-02T11:10:21.170Z,0.70
2018-07-02T11:12:50.704Z,0.70
2018-07-02T11:15:20.240Z,0.70
2018-07-02T11:17:49.785Z,0.80
2018-07-02T11:20:19.315Z,0.60
2018-07-02T11:22:48.922Z,0.67
2018-07-02T11:25:18.403Z,0.90
2018-07-02T11:27:48.089Z,0.70
2018-07-02T11:30:17.582Z,0.67
2018-07-02T11:32:47.118Z,0.60
2018-07-02T11:35:16.733Z,0.70
2018-07-02T11:37:46.207Z,0.50
2018-07-02T11:40:16.120Z,0.50
2018-07-02T11:42:45.651Z,0.77
2018-07-02T11:45:15.595Z,0.70
2018-07-02T11:47:45.135Z,0.60
2018-07-02T11:50:14.695Z,0.80
2018-07-02T11:52:44.276Z,0.87
2018-07-02T11:55:13.810Z,0.80
2018-07-02T11:57:42.979Z,0.60
2018-07-02T12:00:12.499Z,0.80
2018-07-02T12:02:42.180Z,0.90
2018-07-02T12:05:11.740Z,0.77
2018-07-02T12:07:41.245Z,0.93
2018-07-02T12:10:10.800Z,0.80
2018-07-02T12:12:40.342Z,0.60
2018-07-02T12:15:09.934Z,0.77
2018-07-02T12:17:39.100Z,0.80
2018-07-02T12:20:08.539Z,0.70
2018-07-02T12:22:38.089Z,0.70
2018-07-02T12:25:07.637Z,0.70
2018-07-02T12:27:37.084Z,0.70
2018-07-02T12:30:06.669Z,0.70
2018-07-02T12:32:36.165Z,0.60
2018-07-02T12:35:05.684Z,0.70
2018-07-02T12:37:35.267Z,0.63
2018-07-02T12:40:04.883Z,0.70
2018-07-02T12:42:34.003Z,0.70
2018-07-02T12:45:03.554Z,0.60
2018-07-02T12:47:33.083Z,0.80
2018-07-02T12:50:02.669Z,0.73
2018-07-02T12:52:32.447Z,0.80
2018-07-02T12:55:02.084Z,0.80
2018-07-02T12:57:31.736Z,0.60
2018-07-02T13:00:01.248Z,0.60
2018-07-02T13:02:30.911Z,0.70
2018-07-02T13:05:00.426Z,0.70
2018-07-02T13:07:29.551Z,0.83
2018-07-02T13:09:59.011Z,0.90
2018-07-02T13:12:28.552Z,1.00
2018-07-02T13:14:58.215Z,1.07
2018-07-02T13:17:27.866Z,1.23
2018-07-02T13:19:57.409Z,1.30
2018-07-02T13:22:27.000Z,1.17
2018-07-02T13:24:56.503Z,1.07
2018-07-02T13:27:26.048Z,0.90
2018-07-02T13:29:55.569Z,0.80
2018-07-02T13:32:24.663Z,0.80
2018-07-02T13:34:54.134Z,0.90
2018-07-02T13:37:23.967Z,0.90
2018-07-02T13:39:53.370Z,0.80
2018-07-02T13:42:22.497Z,0.90
2018-07-02T13:44:51.533Z,0.90
2018-07-02T13:47:21.165Z,0.80
2018-07-02T13:49:50.703Z,0.90
2018-07-02T13:52:20.292Z,0.70
2018-07-02T13:54:49.874Z,0.73
2018-07-02T13:57:19.456Z,0.70
2018-07-02T13:59:48.988Z,0.80
2018-07-02T14:02:18.572Z,0.90
2018-07-02T14:04:48.072Z,0.60
2018-07-02T14:07:17.618Z,1.00
2018-07-02T14:09:47.180Z,0.90
2018-07-02T14:12:16.809Z,0.87
2018-07-02T14:14:46.323Z,0.70
2018-07-02T14:17:16.218Z,0.77
2018-07-02T14:19:45.742Z,0.80
2018-07-02T14:22:15.300Z,0.70
2018-07-02T14:24:44.791Z,0.80
2018-07-02T14:27:14.618Z,0.90
2018-07-02T14:29:46.093Z,0.77
2018-07-02T14:32:15.711Z,0.83
2018-07-02T14:34:45.257Z,1.07
2018-07-02T14:37:15.111Z,0.87
2018-07-02T14:39:44.684Z,0.80
2018-07-02T14:42:14.244Z,0.90
2018-07-02T14:44:43.864Z,0.90
2018-07-02T14:47:13.497Z,0.70
2018-07-02T14:49:43.022Z,0.90
2018-07-02T14:52:12.542Z,0.90
2018-07-02T14:54:42.073Z,1.10
2018-07-02T14:57:11.605Z,1.13
2018-07-02T14:59:41.118Z,1.40
2018-07-02T15:02:10.780Z,1.30
2018-07-02T15:04:40.360Z,0.90
2018-07-02T15:07:09.908Z,0.93
2018-07-02T15:09:39.516Z,0.80
2018-07-02T15:12:09.070Z,1.00
2018-07-02T15:14:38.619Z,1.10
2018-07-02T15:17:08.166Z,1.10
2018-07-02T15:19:37.685Z,1.10
2018-07-02T15:22:07.223Z,1.20
2018-07-02T15:24:36.812Z,1.20
2018-07-02T15:27:06.392Z,1.00
2018-07-02T15:29:36.052Z,1.10
2018-07-02T15:32:05.672Z,0.90
2018-07-02T15:34:35.194Z,0.90
2018-07-02T15:37:04.937Z,1.10
2018-07-02T15:39:34.560Z,1.00
2018-07-02T15:42:04.192Z,1.00
2018-07-02T15:44:33.735Z,1.00
2018-07-02T15:47:03.281Z,0.90
2018-07-02T15:49:32.878Z,1.10
2018-07-02T15:52:02.426Z,1.15
2018-07-02T15:54:31.944Z,1.12
2018-07-02T15:57:01.544Z,1.13
2018-07-02T15:59:31.073Z,1.15
2018-07-02T16:02:00.643Z,1.20
2018-07-02T16:04:30.192Z,1.20
2018-07-02T16:06:59.721Z,1.27
2018-07-02T16:09:29.253Z,1.15
2018-07-02T16:11:58.768Z,1.32
2018-07-02T16:14:28.385Z,1.07
2018-07-02T16:16:57.953Z,1.30
2018-07-02T16:19:27.907Z,1.40
2018-07-02T16:21:57.456Z,1.30
2018-07-02T16:24:27.012Z,1.20
2018-07-02T16:26:56.574Z,1.40
2018-07-02T16:29:26.678Z,1.42
2018-07-02T16:31:56.236Z,1.20
2018-07-02T16:34:25.846Z,1.55
2018-07-02T16:36:55.374Z,1.47
2018-07-02T16:39:24.965Z,1.27
2018-07-02T16:41:54.520Z,1.40
2018-07-02T16:44:24.105Z,1.75
2018-07-02T16:46:53.708Z,1.20
2018-07-02T16:49:23.278Z,1.40
2018-07-02T16:51:52.925Z,1.40
2018-07-02T16:54:23.344Z,1.45
2018-07-02T16:56:52.953Z,1.30
2018-07-02T16:59:22.480Z,1.30
2018-07-02T17:01:52.042Z,1.40
2018-07-02T17:04:21.620Z,1.27
2018-07-02T17:06:51.247Z,1.85
2018-07-02T17:09:20.836Z,1.30
2018-07-02T17:11:50.364Z,1.17
2018-07-02T17:14:19.920Z,1.10
2018-07-02T17:16:49.486Z,1.12
2018-07-02T17:19:19.033Z,1.10
2018-07-02T17:21:48.565Z,1.00
2018-07-02T17:24:17.736Z,1.17
2018-07-02T17:26:47.189Z,1.00
2018-07-02T17:29:16.723Z,1.27
2018-07-02T17:31:46.364Z,1.10
2018-07-02T17:34:15.936Z,1.30
2018-07-02T17:36:45.495Z,1.02
2018-07-02T17:39:15.058Z,1.05
2018-07-02T17:41:44.652Z,1.00
2018-07-02T17:44:14.230Z,1.30
2018-07-02T17:46:43.935Z,0.98
2018-07-02T17:49:13.534Z,1.10
2018-07-02T17:51:43.085Z,1.10
2018-07-02T17:54:12.688Z,1.12
2018-07-02T17:56:42.270Z,1.35
2018-07-02T17:59:12.152Z,1.15
2018-07-02T18:01:42.448Z,1.42
2018-07-02T18:04:12.875Z,1.17
2018-07-02T18:06:43.235Z,1.25
2018-07-02T18:09:14.168Z,1.00
2018-07-02T18:11:44.586Z,1.17
2018-07-02T18:14:14.179Z,1.20
2018-07-02T18:16:43.481Z,1.30
2018-07-02T18:19:12.902Z,1.05
2018-07-02T18:21:42.464Z,0.93
2018-07-02T18:24:11.992Z,1.30
2018-07-02T18:26:41.595Z,1.45
2018-07-02T18:29:11.190Z,1.15
2018-07-02T18:31:41.087Z,1.05
2018-07-02T18:34:10.701Z,1.35
2018-07-02T18:36:40.259Z,1.20
2018-07-02T18:39:11.664Z,1.15
2018-07-02T18:41:41.381Z,1.07
2018-07-02T18:44:10.562Z,1.13
2018-07-02T18:46:39.964Z,1.37
2018-07-02T18:49:09.565Z,1.50
2018-07-02T18:51:39.556Z,1.33
2018-07-02T18:54:09.120Z,1.20
2018-07-02T18:56:38.827Z,1.40
2018-07-02T18:59:08.402Z,1.40
2018-07-02T19:01:38.014Z,1.27
2018-07-02T19:04:07.701Z,1.20
2018-07-02T19:06:37.232Z,1.63
2018-07-02T19:09:09.788Z,1.40
2018-07-02T19:11:39.362Z,1.20
2018-07-02T19:14:09.008Z,1.20
2018-07-02T19:16:38.579Z,1.47
2018-07-02T19:19:08.207Z,1.20
2018-07-02T19:21:37.724Z,1.60
2018-07-02T19:24:07.281Z,1.30
2018-07-02T19:26:36.830Z,1.40
2018-07-02T19:29:06.425Z,1.50
2018-07-02T19:31:36.392Z,1.60
2018-07-02T19:34:06.116Z,1.43
2018-07-02T19:36:35.683Z,1.20
2018-07-02T19:39:09.525Z,1.30
2018-07-02T19:41:39.189Z,1.30
2018-07-02T19:44:08.999Z,1.27
2018-07-02T19:46:38.548Z,1.20
2018-07-02T19:49:08.181Z,1.40
2018-07-02T19:51:37.676Z,1.00
2018-07-02T19:54:07.298Z,1.47
2018-07-02T19:56:36.891Z,1.70
2018-07-02T19:59:06.432Z,1.53
2018-07-02T20:01:35.985Z,2.20
2018-07-02T20:04:05.849Z,2.03
2018-07-02T20:06:35.462Z,2.50
2018-07-02T20:09:08.010Z,2.53
2018-07-02T20:11:37.540Z,3.43
2018-07-02T20:14:07.313Z,2.90
2018-07-02T20:16:36.867Z,2.77
2018-07-02T20:19:06.500Z,3.83
2018-07-02T20:21:36.021Z,3.23
2018-07-02T20:24:05.663Z,3.03
2018-07-02T20:26:35.302Z,2.00
2018-07-02T20:29:04.452Z,2.20
2018-07-02T20:31:33.892Z,1.70
2018-07-02T20:34:03.565Z,2.10
2018-07-02T20:36:33.388Z,1.80
2018-07-02T20:39:03.487Z,1.60
2018-07-02T20:41:32.994Z,1.70
2018-07-02T20:44:02.526Z,1.57
2018-07-02T20:46:32.096Z,2.10
2018-07-02T20:49:01.656Z,1.80
2018-07-02T20:51:30.809Z,1.77
2018-07-02T20:54:00.350Z,1.40
2018-07-02T20:56:29.932Z,1.50
2018-07-02T20:58:59.508Z,1.40
2018-07-02T21:01:29.088Z,1.40
2018-07-02T21:03:58.602Z,1.60
2018-07-02T21:06:28.190Z,1.33
2018-07-02T21:08:57.701Z,1.60
2018-07-02T21:11:27.256Z,1.43
2018-07-02T21:13:56.793Z,1.80
2018-07-02T21:16:25.957Z,1.40
2018-07-02T21:18:55.340Z,1.47
2018-07-02T21:21:25.236Z,1.30
2018-07-02T21:23:54.742Z,1.60
2018-07-02T21:26:24.282Z,1.50
2018-07-02T21:28:53.764Z,2.00
2018-07-02T21:31:23.373Z,1.50
2018-07-02T21:33:52.959Z,1.50
2018-07-02T21:36:22.454Z,1.30
2018-07-02T21:38:52.015Z,1.60
2018-07-02T21:41:21.710Z,1.30
2018-07-02T21:43:51.977Z,1.47
2018-07-02T21:46:21.548Z,1.50
2018-07-02T21:48:51.225Z,1.30
2018-07-02T21:51:20.791Z,1.57
2018-07-02T21:53:50.434Z,1.10
2018-07-02T21:56:20.323Z,1.33
2018-07-02T21:58:49.881Z,1.10
2018-07-02T22:01:20.875Z,1.20
2018-07-02T22:03:50.703Z,1.10
2018-07-02T22:06:20.439Z,1.07
2018-07-02T22:08:50.055Z,1.30
2018-07-02T22:11:19.629Z,1.40
2018-07-02T22:13:49.218Z,1.20
2018-07-02T22:16:18.816Z,1.50
2018-07-02T22:18:48.377Z,1.27
2018-07-02T22:21:17.940Z,1.30
2018-07-02T22:23:47.493Z,1.30
2018-07-02T22:26:17.036Z,1.67
2018-07-02T22:28:46.545Z,1.00
2018-07-02T22:31:16.179Z,1.27
2018-07-02T22:33:45.770Z,1.20
2018-07-02T22:36:15.272Z,1.10
2018-07-02T22:38:44.877Z,1.20
2018-07-02T22:41:14.503Z,1.20
2018-07-02T22:43:44.123Z,1.30
2018-07-02T22:46:13.707Z,1.10
2018-07-02T22:48:43.297Z,1.20
2018-07-02T22:51:12.831Z,1.10
2018-07-02T22:53:42.400Z,1.20
2018-07-02T22:56:12.477Z,1.30
2018-07-02T22:58:42.011Z,1.33
2018-07-02T23:01:11.621Z,1.23
2018-07-02T23:03:41.152Z,1.20
2018-07-02T23:06:10.728Z,1.23
2018-07-02T23:08:39.872Z,1.23
2018-07-02T23:11:09.358Z,1.20
2018-07-02T23:13:38.906Z,1.30
2018-07-02T23:16:08.460Z,1.13
2018-07-02T23:18:38.053Z,1.30
2018-07-02T23:21:07.636Z,1.17
2018-07-02T23:23:37.198Z,1.20
2018-07-02T23:26:06.773Z,1.30
2018-07-02T23:28:36.317Z,1.03
2018-07-02T23:31:05.886Z,1.20
2018-07-02T23:33:35.540Z,1.47
2018-07-02T23:36:05.100Z,1.40
2018-07-02T23:38:34.642Z,1.20
2018-07-02T23:41:04.241Z,1.37
2018-07-02T23:43:33.806Z,1.20
2018-07-02T23:46:03.399Z,1.30
2018-07-02T23:48:32.558Z,1.30
2018-07-02T23:51:02.070Z,1.57
2018-07-02T23:53:31.576Z,1.20
2018-07-02T23:56:01.168Z,1.30
2018-07-02T23:58:30.693Z,1.40
